createdAt,value
2023-02-07T00:00:07.820Z,57.80
2023-02-07T00:01:07.796Z,58.11
2023-02-07T00:02:07.815Z,58.11
2023-02-07T00:03:07.806Z,58.20
2023-02-07T00:04:07.762Z,58.20
2023-02-07T00:05:07.770Z,58.20
2023-02-07T00:06:07.757Z,58.41
2023-02-07T00:07:07.734Z,58.31
2023-02-07T00:08:07.721Z,58.31
2023-02-07T00:09:07.711Z,58.31
2023-02-07T00:10:07.709Z,58.31
2023-02-07T00:11:07.696Z,58.20
2023-02-07T00:12:07.742Z,58.31
2023-02-07T00:13:07.678Z,58.31
2023-02-07T00:14:07.660Z,58.31
2023-02-07T00:15:07.670Z,58.41
2023-02-07T00:16:07.692Z,58.20
2023-02-07T00:17:07.700Z,58.31
2023-02-07T00:18:07.619Z,58.41
2023-02-07T00:19:07.618Z,58.41
2023-02-07T00:20:07.625Z,58.51
2023-02-07T00:21:07.598Z,58.41
2023-02-07T00:22:07.584Z,58.41
2023-02-07T00:23:07.580Z,58.51
2023-02-07T00:24:07.605Z,58.31
2023-02-07T00:25:07.557Z,58.44
2023-02-07T00:26:07.590Z,58.54
2023-02-07T00:27:07.542Z,58.64
2023-02-07T00:28:07.670Z,58.74
2023-02-07T00:29:07.508Z,58.64
2023-02-07T00:30:07.502Z,58.54
2023-02-07T00:31:07.631Z,58.64
2023-02-07T00:32:07.562Z,58.54
2023-02-07T00:33:07.461Z,58.44
2023-02-07T00:34:07.485Z,58.34
2023-02-07T00:35:07.455Z,58.44
2023-02-07T00:36:07.432Z,58.44
2023-02-07T00:37:07.458Z,58.54
2023-02-07T00:38:07.406Z,58.54
2023-02-07T00:39:07.401Z,58.54
2023-02-07T00:40:07.416Z,58.54
2023-02-07T00:41:07.375Z,58.74
2023-02-07T00:42:07.368Z,58.74
2023-02-07T00:43:07.361Z,58.54
2023-02-07T00:44:07.358Z,58.64
2023-02-07T00:45:07.340Z,58.64
2023-02-07T00:46:07.348Z,58.64
2023-02-07T00:47:07.332Z,58.64
2023-02-07T00:48:07.307Z,58.84
2023-02-07T00:49:07.298Z,58.94
2023-02-07T00:50:07.290Z,58.94
2023-02-07T00:51:07.284Z,58.84
2023-02-07T00:52:07.268Z,58.74
2023-02-07T00:53:07.274Z,58.74
2023-02-07T00:54:07.246Z,58.41
2023-02-07T00:55:07.236Z,58.00
2023-02-07T00:56:07.213Z,58.00
2023-02-07T00:57:07.203Z,58.31
2023-02-07T00:58:07.210Z,58.20
2023-02-07T00:59:07.191Z,58.31
2023-02-07T01:00:07.174Z,58.11
2023-02-07T01:01:07.219Z,58.20
2023-02-07T01:02:07.152Z,58.00
2023-02-07T01:03:07.157Z,58.11
2023-02-07T01:04:07.141Z,58.11
2023-02-07T01:05:07.133Z,58.00
2023-02-07T01:06:07.112Z,57.90
2023-02-07T01:07:07.127Z,57.90
2023-02-07T01:08:07.102Z,57.90
2023-02-07T01:09:07.101Z,57.90
2023-02-07T01:10:07.073Z,57.80
2023-02-07T01:11:07.061Z,57.80
2023-02-07T01:12:07.119Z,57.70
2023-02-07T01:13:07.044Z,57.90
2023-02-07T01:14:07.032Z,57.80
2023-02-07T01:15:07.021Z,58.00
2023-02-07T01:16:07.054Z,58.11
2023-02-07T01:17:07.037Z,58.00
2023-02-07T01:18:06.988Z,58.00
2023-02-07T01:19:07.055Z,58.20
2023-02-07T01:20:06.977Z,58.11
2023-02-07T01:21:06.966Z,58.11
2023-02-07T01:22:06.953Z,58.00
2023-02-07T01:23:06.930Z,58.00
2023-02-07T01:24:06.952Z,57.90
2023-02-07T01:25:06.909Z,57.80
2023-02-07T01:26:06.916Z,57.80
2023-02-07T01:27:06.913Z,57.78
2023-02-07T01:28:06.950Z,57.87
2023-02-07T01:29:06.873Z,57.78
2023-02-07T01:30:06.869Z,57.78
2023-02-07T01:31:06.950Z,57.57
2023-02-07T01:32:06.842Z,57.80
2023-02-07T01:33:06.834Z,57.70
2023-02-07T01:34:06.821Z,57.90
2023-02-07T01:35:06.811Z,57.90
2023-02-07T01:36:06.802Z,58.00
2023-02-07T01:37:06.781Z,57.80
2023-02-07T01:38:06.796Z,58.00
2023-02-07T01:39:06.835Z,58.00
2023-02-07T01:40:06.758Z,58.11
2023-02-07T01:41:06.739Z,58.00
2023-02-07T01:42:06.742Z,58.11
2023-02-07T01:43:06.720Z,58.20
2023-02-07T01:44:06.748Z,58.31
2023-02-07T01:45:06.716Z,58.11
2023-02-07T01:46:06.715Z,58.23
2023-02-07T01:47:06.678Z,58.34
2023-02-07T01:48:06.670Z,58.34
2023-02-07T01:49:06.668Z,58.23
2023-02-07T01:50:06.649Z,58.34
2023-02-07T01:51:06.637Z,58.44
2023-02-07T01:52:06.633Z,58.44
2023-02-07T01:53:06.613Z,58.44
2023-02-07T01:54:06.624Z,58.74
2023-02-07T01:55:06.606Z,58.64
2023-02-07T01:56:06.589Z,58.64
2023-02-07T01:57:06.576Z,58.64
2023-02-07T01:58:06.563Z,58.44
2023-02-07T01:59:06.554Z,58.54
2023-02-07T02:00:06.544Z,58.64
2023-02-07T02:01:06.537Z,58.64
2023-02-07T02:02:06.523Z,58.84
2023-02-07T02:03:06.517Z,58.74
2023-02-07T02:04:06.513Z,58.84
2023-02-07T02:05:06.485Z,58.84
2023-02-07T02:06:06.484Z,58.74
2023-02-07T02:07:06.464Z,58.64
2023-02-07T02:08:06.466Z,58.67
2023-02-07T02:09:06.452Z,58.76
2023-02-07T02:10:06.435Z,58.76
2023-02-07T02:11:06.433Z,58.87
2023-02-07T02:12:06.431Z,58.97
2023-02-07T02:13:06.428Z,58.87
2023-02-07T02:14:06.418Z,58.76
2023-02-07T02:15:06.385Z,58.97
2023-02-07T02:16:06.436Z,58.87
2023-02-07T02:17:06.361Z,58.87
2023-02-07T02:18:06.353Z,58.87
2023-02-07T02:19:06.361Z,58.87
2023-02-07T02:20:06.351Z,58.76
2023-02-07T02:21:06.316Z,58.76
2023-02-07T02:22:06.311Z,58.76
2023-02-07T02:23:06.300Z,58.87
2023-02-07T02:24:06.307Z,58.76
2023-02-07T02:25:06.284Z,58.76
2023-02-07T02:26:06.272Z,58.76
2023-02-07T02:27:06.268Z,58.76
2023-02-07T02:28:06.306Z,58.76
2023-02-07T02:29:06.894Z,58.97
2023-02-07T02:30:06.272Z,58.76
2023-02-07T02:31:06.400Z,58.76
2023-02-07T02:32:06.210Z,58.76
2023-02-07T02:33:06.201Z,58.76
2023-02-07T02:34:06.183Z,58.76
2023-02-07T02:35:06.178Z,58.67
2023-02-07T02:36:06.165Z,58.47
2023-02-07T02:37:06.151Z,58.56
2023-02-07T02:38:06.144Z,58.76
2023-02-07T02:39:06.126Z,58.56
2023-02-07T02:40:06.149Z,58.87
2023-02-07T02:41:06.110Z,58.76
2023-02-07T02:42:06.106Z,58.87
2023-02-07T02:43:06.083Z,58.76
2023-02-07T02:44:06.100Z,58.67
2023-02-07T02:45:06.060Z,58.76
2023-02-07T02:46:06.073Z,58.67
2023-02-07T02:47:06.054Z,58.87
2023-02-07T02:48:06.037Z,58.87
2023-02-07T02:49:06.017Z,58.87
2023-02-07T02:50:06.015Z,58.87
2023-02-07T02:51:05.996Z,58.87
2023-02-07T02:52:06.003Z,58.87
2023-02-07T02:53:05.974Z,58.76
2023-02-07T02:54:05.977Z,58.87
2023-02-07T02:55:05.962Z,58.87
2023-02-07T02:56:05.959Z,59.07
2023-02-07T02:57:05.941Z,58.87
2023-02-07T02:58:05.926Z,58.76
2023-02-07T02:59:05.918Z,58.67
2023-02-07T03:00:05.911Z,58.76
2023-02-07T03:01:05.893Z,58.76
2023-02-07T03:02:05.886Z,58.76
2023-02-07T03:03:05.877Z,58.87
2023-02-07T03:04:05.869Z,58.76
2023-02-07T03:05:11.478Z,58.64
2023-02-07T03:06:05.847Z,58.74
2023-02-07T03:07:05.824Z,58.64
2023-02-07T03:08:05.838Z,58.64
2023-02-07T03:09:05.828Z,58.13
2023-02-07T03:10:05.794Z,58.64
2023-02-07T03:11:05.784Z,58.54
2023-02-07T03:12:05.766Z,58.34
2023-02-07T03:13:05.773Z,58.03
2023-02-07T03:14:05.757Z,58.23
2023-02-07T03:15:05.746Z,58.23
2023-02-07T03:16:05.753Z,58.23
2023-02-07T03:17:05.715Z,58.03
2023-02-07T03:18:05.715Z,57.93
2023-02-07T03:19:05.694Z,58.23
2023-02-07T03:20:05.688Z,58.23
2023-02-07T03:21:05.667Z,58.34
2023-02-07T03:22:05.660Z,58.44
2023-02-07T03:23:05.664Z,58.34
2023-02-07T03:24:05.635Z,58.44
2023-02-07T03:25:05.621Z,58.44
2023-02-07T03:26:05.614Z,58.23
2023-02-07T03:27:05.603Z,58.44
2023-02-07T03:28:05.621Z,58.23
2023-02-07T03:29:05.581Z,58.44
2023-02-07T03:30:05.574Z,58.34
2023-02-07T03:31:05.612Z,58.23
2023-02-07T03:32:05.555Z,58.34
2023-02-07T03:33:05.563Z,58.44
2023-02-07T03:34:05.536Z,58.23
2023-02-07T03:35:05.517Z,58.34
2023-02-07T03:36:05.500Z,58.44
2023-02-07T03:37:05.492Z,58.34
2023-02-07T03:38:05.498Z,58.34
2023-02-07T03:39:05.476Z,58.23
2023-02-07T03:40:05.474Z,58.34
2023-02-07T03:41:05.465Z,58.23
2023-02-07T03:42:05.448Z,58.44
2023-02-07T03:43:05.423Z,58.34
2023-02-07T03:44:05.431Z,58.23
2023-02-07T03:45:05.407Z,58.23
2023-02-07T03:46:05.401Z,58.44
2023-02-07T03:47:05.385Z,58.34
2023-02-07T03:48:05.396Z,58.34
2023-02-07T03:49:05.371Z,58.67
2023-02-07T03:50:05.349Z,58.56
2023-02-07T03:51:05.418Z,58.87
2023-02-07T03:52:05.337Z,58.76
2023-02-07T03:53:05.314Z,58.87
2023-02-07T03:54:05.317Z,58.87
2023-02-07T03:55:05.301Z,59.07
2023-02-07T03:56:05.293Z,58.97
2023-02-07T03:57:05.274Z,58.97
2023-02-07T03:58:05.268Z,59.17
2023-02-07T03:59:05.261Z,59.07
2023-02-07T04:00:05.249Z,58.97
2023-02-07T04:01:05.260Z,59.07
2023-02-07T04:02:05.268Z,59.17
2023-02-07T04:03:05.212Z,59.17
2023-02-07T04:04:05.214Z,59.20
2023-02-07T04:05:05.191Z,59.17
2023-02-07T04:06:05.189Z,59.07
2023-02-07T04:07:05.184Z,59.17
2023-02-07T04:08:05.161Z,59.17
2023-02-07T04:09:05.160Z,59.20
2023-02-07T04:10:05.148Z,59.20
2023-02-07T04:11:05.125Z,59.20
2023-02-07T04:12:05.116Z,59.20
2023-02-07T04:13:05.122Z,59.20
2023-02-07T04:14:05.097Z,59.30
2023-02-07T04:15:05.088Z,59.30
2023-02-07T04:16:05.137Z,59.10
2023-02-07T04:17:05.058Z,59.41
2023-02-07T04:18:05.060Z,59.50
2023-02-07T04:19:05.034Z,59.50
2023-02-07T04:20:05.035Z,59.30
2023-02-07T04:21:05.030Z,59.41
2023-02-07T04:22:05.020Z,59.30
2023-02-07T04:23:05.008Z,59.30
2023-02-07T04:24:04.994Z,59.10
2023-02-07T04:25:04.982Z,59.10
2023-02-07T04:26:04.965Z,59.00
2023-02-07T04:27:04.955Z,58.90
2023-02-07T04:28:04.996Z,59.20
2023-02-07T04:29:04.936Z,59.20
2023-02-07T04:30:04.942Z,59.10
2023-02-07T04:31:04.906Z,59.20
2023-02-07T04:32:04.946Z,59.20
2023-02-07T04:33:04.907Z,59.10
2023-02-07T04:34:04.874Z,59.10
2023-02-07T04:35:04.879Z,58.90
2023-02-07T04:36:04.855Z,59.00
2023-02-07T04:37:04.848Z,59.10
2023-02-07T04:38:04.834Z,59.10
2023-02-07T04:39:04.830Z,59.00
2023-02-07T04:40:04.846Z,59.00
2023-02-07T04:41:04.808Z,59.10
2023-02-07T04:42:04.788Z,59.00
2023-02-07T04:43:04.834Z,59.10
2023-02-07T04:44:04.768Z,59.00
2023-02-07T04:45:04.770Z,59.00
2023-02-07T04:46:04.769Z,59.10
2023-02-07T04:47:04.735Z,59.10
2023-02-07T04:48:04.723Z,59.00
2023-02-07T04:49:04.717Z,59.20
2023-02-07T04:50:04.706Z,59.10
2023-02-07T04:51:04.702Z,59.10
2023-02-07T04:52:04.683Z,59.00
2023-02-07T04:53:04.669Z,59.20
2023-02-07T04:54:04.656Z,59.00
2023-02-07T04:55:04.639Z,59.10
2023-02-07T04:56:04.730Z,59.10
2023-02-07T04:57:04.630Z,59.10
2023-02-07T04:58:04.619Z,59.10
2023-02-07T04:59:04.617Z,58.90
2023-02-07T05:00:04.598Z,58.90
2023-02-07T05:01:04.623Z,58.90
2023-02-07T05:02:04.569Z,59.10
2023-02-07T05:03:04.567Z,58.90
2023-02-07T05:04:04.551Z,58.90
2023-02-07T05:05:04.549Z,58.90
2023-02-07T05:06:04.532Z,58.87
2023-02-07T05:07:04.512Z,58.87
2023-02-07T05:08:04.528Z,58.56
2023-02-07T05:09:04.496Z,58.67
2023-02-07T05:10:04.488Z,58.56
2023-02-07T05:11:04.480Z,58.67
2023-02-07T05:12:04.475Z,58.76
2023-02-07T05:13:04.450Z,58.97
2023-02-07T05:14:04.454Z,58.87
2023-02-07T05:15:04.456Z,58.76
2023-02-07T05:16:04.422Z,58.76
2023-02-07T05:17:04.408Z,58.87
2023-02-07T05:18:04.416Z,58.87
2023-02-07T05:19:04.399Z,59.07
2023-02-07T05:20:04.397Z,58.76
2023-02-07T05:21:04.384Z,58.87
2023-02-07T05:22:04.363Z,58.67
2023-02-07T05:23:04.354Z,58.56
2023-02-07T05:24:04.414Z,58.47
2023-02-07T05:25:04.338Z,58.76
2023-02-07T05:26:04.323Z,58.26
2023-02-07T05:27:04.307Z,58.87
2023-02-07T05:28:04.338Z,58.87
2023-02-07T05:29:04.299Z,58.67
2023-02-07T05:30:04.300Z,58.47
2023-02-07T05:31:04.378Z,58.47
2023-02-07T05:32:06.630Z,58.44
2023-02-07T05:33:04.267Z,58.13
2023-02-07T05:34:04.235Z,58.13
2023-02-07T05:35:04.233Z,58.13
2023-02-07T05:36:04.205Z,58.13
2023-02-07T05:37:04.201Z,58.23
2023-02-07T05:38:04.199Z,58.13
2023-02-07T05:39:04.567Z,58.23
2023-02-07T05:40:04.172Z,58.13
2023-02-07T05:41:04.159Z,58.13
2023-02-07T05:42:04.141Z,58.23
2023-02-07T05:43:04.142Z,58.03
2023-02-07T05:44:04.126Z,58.23
2023-02-07T05:45:04.131Z,58.23
2023-02-07T05:46:04.130Z,58.44
2023-02-07T05:47:04.102Z,58.44
2023-02-07T05:48:05.398Z,58.13
2023-02-07T05:49:04.072Z,58.23
2023-02-07T05:50:04.065Z,58.13
2023-02-07T05:51:04.051Z,58.23
2023-02-07T05:52:04.032Z,58.34
2023-02-07T05:53:04.040Z,58.23
2023-02-07T05:54:04.021Z,58.13
2023-02-07T05:55:04.041Z,58.03
2023-02-07T05:56:04.020Z,58.03
2023-02-07T05:57:03.987Z,58.23
2023-02-07T05:58:03.983Z,57.93
2023-02-07T05:59:03.962Z,58.26
2023-02-07T06:00:03.959Z,58.16
2023-02-07T06:01:03.970Z,58.06
2023-02-07T06:02:03.938Z,58.36
2023-02-07T06:03:03.944Z,58.36
2023-02-07T06:04:03.908Z,58.47
2023-02-07T06:05:03.912Z,58.47
2023-02-07T06:06:03.901Z,58.36
2023-02-07T06:07:03.888Z,58.56
2023-02-07T06:08:03.869Z,58.69
2023-02-07T06:09:03.871Z,58.69
2023-02-07T06:10:03.861Z,58.80
2023-02-07T06:11:03.845Z,58.69
2023-02-07T06:12:05.316Z,58.69
2023-02-07T06:13:03.817Z,59.00
2023-02-07T06:14:03.841Z,58.80
2023-02-07T06:15:03.833Z,58.90
2023-02-07T06:16:03.926Z,59.00
2023-02-07T06:17:03.769Z,59.10
2023-02-07T06:18:03.758Z,59.10
2023-02-07T06:19:03.775Z,59.10
2023-02-07T06:20:03.753Z,59.00
2023-02-07T06:21:03.725Z,59.00
2023-02-07T06:22:03.727Z,58.90
2023-02-07T06:23:03.706Z,58.80
2023-02-07T06:24:03.691Z,58.90
2023-02-07T06:25:03.690Z,58.80
2023-02-07T06:26:03.686Z,59.10
2023-02-07T06:27:03.675Z,59.00
2023-02-07T06:28:03.674Z,59.00
2023-02-07T06:29:03.645Z,59.00
2023-02-07T06:30:03.662Z,58.90
2023-02-07T06:31:03.769Z,59.00
2023-02-07T06:32:03.612Z,59.00
2023-02-07T06:33:03.574Z,59.00
2023-02-07T06:34:03.536Z,59.00
2023-02-07T06:35:03.586Z,58.90
2023-02-07T06:36:03.582Z,59.00
2023-02-07T06:37:03.564Z,58.90
2023-02-07T06:38:03.558Z,58.90
2023-02-07T06:39:03.542Z,58.90
2023-02-07T06:40:03.498Z,58.90
2023-02-07T06:41:03.527Z,58.80
2023-02-07T06:42:03.503Z,58.69
2023-02-07T06:43:03.448Z,58.69
2023-02-07T06:44:03.446Z,58.56
2023-02-07T06:45:03.424Z,58.47
2023-02-07T06:46:03.429Z,58.59
2023-02-07T06:47:03.418Z,58.59
2023-02-07T06:48:03.382Z,58.56
2023-02-07T06:49:03.385Z,58.56
2023-02-07T06:50:03.390Z,58.47
2023-02-07T06:51:03.361Z,58.36
2023-02-07T06:52:03.365Z,58.47
2023-02-07T06:53:03.355Z,58.47
2023-02-07T06:54:03.362Z,58.47
2023-02-07T06:55:03.350Z,58.47
2023-02-07T06:56:03.304Z,58.47
2023-02-07T06:57:03.319Z,58.26
2023-02-07T06:58:03.293Z,58.49
2023-02-07T06:59:03.283Z,58.59
2023-02-07T07:00:03.274Z,58.56
2023-02-07T07:01:03.290Z,58.49
2023-02-07T07:02:03.326Z,58.59
2023-02-07T07:03:03.305Z,58.59
2023-02-07T07:04:03.220Z,58.59
2023-02-07T07:05:03.220Z,58.69
2023-02-07T07:06:03.205Z,58.80
2023-02-07T07:07:03.215Z,58.59
2023-02-07T07:08:03.175Z,58.59
2023-02-07T07:09:03.178Z,58.59
2023-02-07T07:10:03.184Z,58.80
2023-02-07T07:11:03.156Z,58.59
2023-02-07T07:12:03.134Z,58.69
2023-02-07T07:13:03.150Z,45.21
2023-02-07T07:14:03.122Z,42.92
2023-02-07T07:15:03.133Z,43.06
2023-02-07T07:16:03.141Z,55.91
2023-02-07T07:17:03.109Z,62.04
2023-02-07T07:18:03.088Z,63.90
2023-02-07T07:19:03.079Z,63.80
2023-02-07T07:20:03.083Z,63.46
2023-02-07T07:21:03.113Z,63.26
2023-02-07T07:22:03.030Z,62.72
2023-02-07T07:23:03.042Z,62.21
2023-02-07T07:24:03.024Z,61.37
2023-02-07T07:25:03.002Z,60.94
2023-02-07T07:26:03.011Z,60.22
2023-02-07T07:27:02.974Z,59.99
2023-02-07T07:28:03.022Z,59.56
2023-02-07T07:29:02.979Z,59.05
2023-02-07T07:30:02.958Z,58.95
2023-02-07T07:31:03.066Z,58.75
2023-02-07T07:32:02.925Z,58.75
2023-02-07T07:33:02.934Z,59.12
2023-02-07T07:34:02.907Z,58.92
2023-02-07T07:35:02.932Z,58.31
2023-02-07T07:36:02.888Z,58.29
2023-02-07T07:37:02.870Z,58.49
2023-02-07T07:38:02.908Z,57.98
2023-02-07T07:39:02.889Z,57.88
2023-02-07T07:40:02.832Z,57.98
2023-02-07T07:41:02.837Z,57.98
2023-02-07T07:42:02.854Z,57.98
2023-02-07T07:43:02.810Z,58.18
2023-02-07T07:44:02.799Z,58.29
2023-02-07T07:45:02.799Z,58.29
2023-02-07T07:46:02.762Z,58.69
2023-02-07T07:47:02.758Z,58.49
2023-02-07T07:48:02.769Z,58.56
2023-02-07T07:49:02.733Z,58.47
2023-02-07T07:50:02.732Z,58.36
2023-02-07T07:51:02.709Z,58.36
2023-02-07T07:52:02.739Z,58.26
2023-02-07T07:53:02.682Z,57.96
2023-02-07T07:54:02.682Z,58.06
2023-02-07T07:55:02.680Z,58.06
2023-02-07T07:56:02.646Z,58.03
2023-02-07T07:57:02.644Z,58.03
2023-02-07T07:58:02.626Z,58.03
2023-02-07T07:59:06.034Z,57.93
2023-02-07T08:00:02.622Z,57.93
2023-02-07T08:01:02.619Z,57.73
2023-02-07T08:02:02.598Z,57.83
2023-02-07T08:03:02.593Z,57.93
2023-02-07T08:04:02.561Z,58.03
2023-02-07T08:05:02.562Z,58.13
2023-02-07T08:06:02.562Z,57.93
2023-02-07T08:07:02.532Z,58.03
2023-02-07T08:08:02.536Z,57.83
2023-02-07T08:09:02.511Z,57.83
2023-02-07T08:10:02.641Z,57.62
2023-02-07T08:11:02.534Z,57.53
2023-02-07T08:12:02.476Z,57.62
2023-02-07T08:13:02.466Z,57.53
2023-02-07T08:14:02.476Z,57.83
2023-02-07T08:15:02.485Z,58.03
2023-02-07T08:16:02.511Z,57.83
2023-02-07T08:17:02.458Z,57.93
2023-02-07T08:18:02.415Z,57.93
2023-02-07T08:19:02.414Z,58.13
2023-02-07T08:20:02.430Z,58.23
2023-02-07T08:21:02.397Z,58.23
2023-02-07T08:22:02.382Z,58.34
2023-02-07T08:23:02.364Z,58.44
2023-02-07T08:24:02.350Z,58.54
2023-02-07T08:25:02.353Z,58.47
2023-02-07T08:26:02.329Z,58.47
2023-02-07T08:27:02.315Z,58.67
2023-02-07T08:28:04.494Z,58.87
2023-02-07T08:29:02.310Z,58.76
2023-02-07T08:30:02.277Z,58.97
2023-02-07T08:31:02.451Z,58.97
2023-02-07T08:32:02.309Z,58.56
2023-02-07T08:33:02.253Z,58.67
2023-02-07T08:34:02.241Z,58.97
2023-02-07T08:35:02.233Z,58.97
2023-02-07T08:36:02.221Z,58.67
2023-02-07T08:37:02.225Z,58.44
2023-02-07T08:38:02.201Z,58.34
2023-02-07T08:39:02.180Z,58.03
2023-02-07T08:40:02.168Z,57.70
2023-02-07T08:41:02.166Z,57.40
2023-02-07T08:42:02.170Z,57.40
2023-02-07T08:43:02.235Z,57.29
2023-02-07T08:44:02.150Z,57.09
2023-02-07T08:45:02.154Z,57.20
2023-02-07T08:46:02.245Z,56.99
2023-02-07T08:47:02.094Z,57.09
2023-02-07T08:48:02.083Z,56.99
2023-02-07T08:49:03.425Z,57.20
2023-02-07T08:50:02.064Z,57.09
2023-02-07T08:51:02.052Z,57.09
2023-02-07T08:52:02.049Z,57.29
2023-02-07T08:53:02.031Z,57.60
2023-02-07T08:54:02.016Z,58.00
2023-02-07T08:55:02.052Z,57.90
2023-02-07T08:56:02.001Z,57.73
2023-02-07T08:57:02.016Z,57.83
2023-02-07T08:58:02.082Z,58.03
2023-02-07T08:59:01.987Z,57.93
2023-02-07T09:00:02.014Z,58.13
2023-02-07T09:01:02.051Z,58.34
2023-02-07T09:02:02.008Z,58.34
2023-02-07T09:03:01.934Z,57.83
2023-02-07T09:04:01.912Z,57.93
2023-02-07T09:05:01.923Z,58.34
2023-02-07T09:06:01.895Z,58.74
2023-02-07T09:07:01.880Z,58.84
2023-02-07T09:08:01.867Z,58.74
2023-02-07T09:09:01.858Z,58.92
2023-02-07T09:10:01.866Z,59.22
2023-02-07T09:11:01.922Z,58.92
2023-02-07T09:12:01.836Z,59.12
2023-02-07T09:13:01.826Z,58.92
2023-02-07T09:14:01.826Z,58.81
2023-02-07T09:15:01.796Z,58.71
2023-02-07T09:16:01.782Z,58.61
2023-02-07T09:17:01.779Z,58.92
2023-02-07T09:18:01.794Z,59.32
2023-02-07T09:19:01.754Z,59.22
2023-02-07T09:20:01.756Z,59.32
2023-02-07T09:21:01.736Z,59.42
2023-02-07T09:22:01.734Z,59.22
2023-02-07T09:23:01.712Z,59.22
2023-02-07T09:24:01.696Z,59.83
2023-02-07T09:25:01.698Z,59.52
2023-02-07T09:26:01.673Z,59.52
2023-02-07T09:27:01.688Z,59.52
2023-02-07T09:28:01.698Z,59.63
2023-02-07T09:29:01.677Z,59.52
2023-02-07T09:30:01.629Z,59.52
2023-02-07T09:31:03.413Z,59.83
2023-02-07T09:32:01.691Z,59.83
2023-02-07T09:33:01.647Z,59.80
2023-02-07T09:34:01.608Z,59.80
2023-02-07T09:35:01.608Z,59.80
2023-02-07T09:36:01.589Z,59.70
2023-02-07T09:37:01.582Z,60.10
2023-02-07T09:38:01.589Z,59.90
2023-02-07T09:39:01.581Z,59.90
2023-02-07T09:40:01.666Z,59.90
2023-02-07T09:41:01.512Z,59.70
2023-02-07T09:42:01.698Z,59.90
2023-02-07T09:43:01.743Z,60.10
2023-02-07T09:44:01.710Z,60.10
2023-02-07T09:45:01.722Z,60.10
2023-02-07T09:46:01.494Z,60.20
2023-02-07T09:47:01.480Z,60.10
2023-02-07T09:48:01.449Z,59.80
2023-02-07T09:49:01.445Z,60.00
2023-02-07T09:50:01.473Z,60.10
2023-02-07T09:51:01.418Z,60.23
2023-02-07T09:52:01.399Z,59.92
2023-02-07T09:53:01.395Z,60.43
2023-02-07T09:54:01.384Z,60.84
2023-02-07T09:55:01.380Z,60.53
2023-02-07T09:56:01.426Z,61.04
2023-02-07T09:57:01.357Z,61.14
2023-02-07T09:58:01.352Z,60.84
2023-02-07T09:59:01.339Z,60.94
2023-02-07T10:00:01.402Z,60.94
2023-02-07T10:01:01.326Z,61.04
2023-02-07T10:02:01.287Z,61.14
2023-02-07T10:03:01.296Z,61.24
2023-02-07T10:04:01.264Z,61.35
2023-02-07T10:05:01.250Z,61.41
2023-02-07T10:06:09.207Z,61.21
2023-02-07T10:07:01.242Z,61.21
2023-02-07T10:08:01.220Z,61.01
2023-02-07T10:09:01.228Z,61.21
2023-02-07T10:10:01.223Z,61.11
2023-02-07T10:11:01.189Z,60.91
2023-02-07T10:12:01.203Z,60.81
2023-02-07T10:13:01.177Z,61.01
2023-02-07T10:14:01.173Z,61.35
2023-02-07T10:15:01.145Z,61.04
2023-02-07T10:16:01.150Z,61.14
2023-02-07T10:17:01.138Z,61.44
2023-02-07T10:18:01.124Z,61.44
2023-02-07T10:19:01.106Z,61.55
2023-02-07T10:20:01.112Z,61.55
2023-02-07T10:21:02.017Z,61.24
2023-02-07T10:22:01.072Z,61.24
2023-02-07T10:23:01.097Z,61.32
2023-02-07T10:24:01.047Z,61.21
2023-02-07T10:25:01.060Z,61.41
2023-02-07T10:26:01.033Z,61.21
2023-02-07T10:27:01.038Z,61.21
2023-02-07T10:28:01.028Z,61.21
2023-02-07T10:29:01.018Z,61.52
2023-02-07T10:30:00.996Z,61.52
2023-02-07T10:31:01.105Z,61.41
2023-02-07T10:32:00.961Z,61.32
2023-02-07T10:33:00.954Z,61.32
2023-02-07T10:34:00.950Z,61.32
2023-02-07T10:35:01.001Z,61.01
2023-02-07T10:36:00.914Z,61.52
2023-02-07T10:37:00.898Z,61.52
2023-02-07T10:38:00.895Z,61.32
2023-02-07T10:39:08.796Z,61.41
2023-02-07T10:40:00.964Z,61.62
2023-02-07T10:41:00.857Z,61.32
2023-02-07T10:42:00.859Z,61.41
2023-02-07T10:43:00.872Z,61.41
2023-02-07T10:44:00.841Z,61.32
2023-02-07T10:45:00.838Z,61.21
2023-02-07T10:46:06.292Z,61.32
2023-02-07T10:47:00.813Z,61.32
2023-02-07T10:48:00.803Z,61.32
2023-02-07T10:49:00.768Z,61.11
2023-02-07T10:50:00.772Z,61.21
2023-02-07T10:51:00.760Z,61.52
2023-02-07T10:52:00.745Z,61.95
2023-02-07T10:53:00.738Z,61.62
2023-02-07T10:54:00.726Z,61.52
2023-02-07T10:55:00.800Z,61.62
2023-02-07T10:56:00.700Z,61.62
2023-02-07T10:57:02.562Z,61.92
2023-02-07T10:58:08.552Z,61.82
2023-02-07T10:59:00.672Z,61.62
2023-02-07T11:00:00.669Z,62.12
2023-02-07T11:01:00.636Z,61.92
2023-02-07T11:02:00.702Z,61.62
2023-02-07T11:03:00.697Z,61.52
2023-02-07T11:04:00.615Z,44.92
2023-02-07T11:05:00.618Z,35.99
2023-02-07T11:07:47.825Z,40.53
2023-02-07T11:08:43.599Z,41.02
2023-02-07T11:09:43.590Z,43.44
2023-02-07T11:10:43.576Z,47.17
2023-02-07T11:11:43.551Z,43.22
2023-02-07T11:12:43.551Z,42.85
2023-02-07T11:13:43.536Z,46.97
2023-02-07T11:14:48.753Z,78.63
2023-02-07T11:15:43.543Z,79.99
2023-02-07T11:16:43.530Z,78.38
2023-02-07T11:17:43.549Z,76.03
2023-02-07T11:18:45.464Z,74.42
2023-02-07T11:19:43.471Z,72.28
2023-02-07T11:20:43.464Z,69.87
2023-02-07T11:21:43.465Z,68.27
2023-02-07T11:22:43.459Z,66.72
2023-02-07T11:23:43.440Z,66.18
2023-02-07T11:24:43.438Z,65.00
2023-02-07T11:25:43.421Z,64.36
2023-02-07T11:26:43.407Z,63.55
2023-02-07T11:27:43.396Z,63.42
2023-02-07T11:28:43.390Z,62.98
2023-02-07T11:29:43.385Z,62.57
2023-02-07T11:30:43.385Z,61.97
2023-02-07T11:31:43.419Z,62.14
2023-02-07T11:32:43.340Z,61.94
2023-02-07T11:33:43.344Z,62.01
2023-02-07T11:34:43.330Z,62.01
2023-02-07T11:35:43.341Z,61.80
2023-02-07T11:36:43.300Z,61.51
2023-02-07T11:37:43.297Z,61.37
2023-02-07T11:38:43.278Z,61.27
2023-02-07T11:39:43.280Z,60.86
2023-02-07T11:40:43.260Z,60.57
2023-02-07T11:41:43.260Z,60.46
2023-02-07T11:42:43.244Z,60.66
2023-02-07T11:43:43.234Z,60.16
2023-02-07T11:44:43.229Z,60.16
2023-02-07T11:45:43.223Z,60.23
2023-02-07T11:46:43.230Z,59.83
2023-02-07T11:47:43.184Z,60.33
2023-02-07T11:48:43.269Z,60.57
2023-02-07T11:49:43.187Z,60.63
2023-02-07T11:50:43.235Z,60.57
2023-02-07T11:51:43.161Z,61.04
2023-02-07T11:52:43.124Z,60.74
2023-02-07T11:53:43.137Z,60.63
2023-02-07T11:54:43.100Z,60.84
2023-02-07T11:55:43.112Z,60.53
2023-02-07T11:56:43.076Z,60.23
2023-02-07T11:57:43.070Z,60.13
2023-02-07T11:58:43.054Z,59.83
2023-02-07T11:59:43.059Z,59.52
2023-02-07T12:00:43.098Z,60.03
2023-02-07T12:01:43.077Z,59.49
2023-02-07T12:02:43.026Z,59.80
2023-02-07T12:03:43.009Z,59.49
2023-02-07T12:04:43.039Z,59.63
2023-02-07T12:05:43.010Z,59.63
2023-02-07T12:06:42.980Z,59.52
2023-02-07T12:07:43.011Z,59.42
2023-02-07T12:08:42.965Z,59.63
2023-02-07T12:09:42.942Z,59.92
2023-02-07T12:10:42.941Z,59.92
2023-02-07T12:11:42.932Z,59.32
2023-02-07T12:12:42.936Z,59.52
2023-02-07T12:13:42.929Z,59.72
2023-02-07T12:14:42.898Z,59.72
2023-02-07T12:15:42.881Z,59.63
2023-02-07T12:16:42.903Z,59.92
2023-02-07T12:17:42.884Z,59.63
2023-02-07T12:18:42.846Z,59.92
2023-02-07T12:19:42.842Z,59.83
2023-02-07T12:20:42.836Z,59.52
2023-02-07T12:21:42.819Z,59.92
2023-02-07T12:22:44.514Z,60.03
2023-02-07T12:23:43.618Z,60.13
2023-02-07T12:24:42.779Z,60.13
2023-02-07T12:25:42.820Z,59.83
2023-02-07T12:26:42.766Z,59.92
2023-02-07T12:27:42.764Z,59.83
2023-02-07T12:28:42.750Z,59.72
2023-02-07T12:29:42.729Z,59.63
2023-02-07T12:30:42.744Z,59.32
2023-02-07T12:31:42.805Z,59.83
2023-02-07T12:32:42.895Z,59.63
2023-02-07T12:33:42.697Z,59.92
2023-02-07T12:34:42.674Z,59.83
2023-02-07T12:35:52.002Z,60.10
2023-02-07T12:36:42.653Z,59.70
2023-02-07T12:37:42.637Z,59.70
2023-02-07T12:38:42.652Z,59.59
2023-02-07T12:39:42.638Z,59.49
2023-02-07T12:40:42.619Z,59.39
2023-02-07T12:41:42.608Z,59.59
2023-02-07T12:42:42.582Z,59.49
2023-02-07T12:43:42.602Z,59.39
2023-02-07T12:44:42.558Z,59.59
2023-02-07T12:45:42.601Z,59.49
2023-02-07T12:46:42.547Z,60.00
2023-02-07T12:47:42.545Z,59.59
2023-02-07T12:48:42.562Z,60.00
2023-02-07T12:49:42.526Z,59.80
2023-02-07T12:50:42.496Z,59.70
2023-02-07T12:51:42.501Z,59.59
2023-02-07T12:52:42.489Z,59.39
2023-02-07T12:53:42.480Z,59.90